Time;durP1;ratioP1;P1;durP2;ratioP2;P2;SDS_P1;SDS_P2;PMS_P1;PMS_P2;Temp;Humidity;BMP_temperature;BMP_pressure;BME280_temperature;BME280_humidity;BME280_pressure;Samples;Min_cycle;Max_cycle;Signal;HPM_P1;HPM_P2
2022/05/03 00:01:26;;;;;;;9.10;8.40;;;;;;;7.59;79.91;101733.38;4978181;28;20853;-55
2022/05/03 00:04:07;;;;;;;9.00;8.30;;;;;;;7.57;80.09;101727.38;4979006;28;20434;-55
2022/05/03 00:06:48;;;;;;;8.50;7.57;;;;;;;7.57;80.84;101727.38;4978267;28;20458;-53
2022/05/03 00:09:23;;;;;;;8.63;8.03;;;;;;;7.56;80.86;101723.06;4979511;28;20426;-52
2022/05/03 00:11:55;;;;;;;8.80;8.10;;;;;;;7.57;80.84;101726.53;4978868;28;20467;-55
2022/05/03 00:14:31;;;;;;;10.33;8.43;;;;;;;7.58;81.27;101718.44;4979790;28;20431;-50
2022/05/03 00:17:00;;;;;;;9.63;9.03;;;;;;;7.62;82.22;101714.47;4979460;28;20980;-55
2022/05/03 00:19:28;;;;;;;9.33;8.63;;;;;;;7.69;82.73;101720.00;4978405;28;20847;-51
2022/05/03 00:21:56;;;;;;;8.30;7.60;;;;;;;7.73;82.88;101722.22;4977997;28;20463;-54
2022/05/03 00:24:24;;;;;;;9.47;8.80;;;;;;;7.81;83.00;101718.78;4978392;28;20431;-55
2022/05/03 00:26:53;;;;;;;8.93;8.13;;;;;;;7.86;83.99;101716.47;4978848;28;20835;-49
2022/05/03 00:29:21;;;;;;;8.47;8.00;;;;;;;7.93;83.71;101716.69;4977995;28;20527;-53
2022/05/03 00:31:51;;;;;;;8.67;7.77;;;;;;;8.00;84.44;101721.25;4977982;28;20471;-54
2022/05/03 00:34:19;;;;;;;9.60;8.80;;;;;;;8.06;84.85;101720.63;4978668;28;20435;-55
2022/05/03 00:36:47;;;;;;;9.70;8.90;;;;;;;8.11;85.08;101715.66;4978575;28;20469;-54
2022/05/03 00:39:15;;;;;;;10.47;8.70;;;;;;;8.14;85.79;101714.50;4978255;28;20532;-54
2022/05/03 00:41:46;;;;;;;8.63;8.03;;;;;;;8.19;86.02;101712.22;4977370;28;20466;-52
2022/05/03 00:47:16;;;;;;;13.53;9.10;;;;;;;8.27;86.84;101713.13;4969945;28;20465;-53
2022/05/03 00:49:56;;;;;;;11.03;10.00;;;;;;;8.30;87.57;101712.00;4978133;28;20427;-53
2022/05/03 00:52:28;;;;;;;8.60;8.00;;;;;;;8.33;87.09;101703.72;4977199;28;20470;-52
2022/05/03 00:55:21;;;;;;;10.03;9.10;;;;;;;8.37;87.16;101707.69;4977729;28;20431;-55
2022/05/03 00:58:00;;;;;;;10.20;9.30;;;;;;;8.44;87.88;101705.25;4978056;28;20443;-55
2022/05/03 01:00:30;;;;;;;9.83;8.87;;;;;;;8.48;87.97;101707.44;4977397;28;20434;-55
2022/05/03 01:03:11;;;;;;;8.57;8.00;;;;;;;8.53;88.04;101699.81;4977497;28;20475;-55
2022/05/03 01:06:02;;;;;;;9.30;8.60;;;;;;;8.57;88.13;101706.44;4978140;28;20430;-51
2022/05/03 01:08:36;;;;;;;9.30;8.57;;;;;;;8.62;88.12;101703.31;4977966;28;20959;-53
2022/05/03 01:11:32;;;;;;;9.73;8.93;;;;;;;8.66;88.06;101697.50;4977328;28;20455;-55
2022/05/03 01:14:07;;;;;;;10.40;9.60;;;;;;;8.71;88.12;101692.56;4978110;28;20950;-53
2022/05/03 01:16:39;;;;;;;8.67;8.07;;;;;;;8.77;87.75;101696.41;4977539;28;20557;-54
2022/05/03 01:19:28;;;;;;;9.23;8.33;;;;;;;8.79;87.59;101697.91;4976518;28;20485;-55
2022/05/03 01:22:08;;;;;;;8.60;8.10;;;;;;;8.85;87.65;101691.09;4976784;28;20467;-53
2022/05/03 01:25:04;;;;;;;8.73;8.20;;;;;;;8.88;87.59;101688.09;4977157;28;20437;-52
2022/05/03 01:27:48;;;;;;;8.40;7.90;;;;;;;8.92;87.75;101688.63;5004904;23;20855;-45
2022/05/03 01:30:18;;;;;;;9.40;8.70;;;;;;;8.91;87.86;101682.47;4988595;28;20436;-46
2022/05/03 01:32:46;;;;;;;11.53;10.53;;;;;;;8.90;88.28;101683.44;4992736;28;20466;-45
2022/05/03 01:35:15;;;;;;;9.13;8.53;;;;;;;8.94;88.20;101684.78;4993160;28;20438;-43
2022/05/03 01:38:11;;;;;;;9.70;9.00;;;;;;;8.95;88.54;101689.13;4993121;28;20450;-44
2022/05/03 01:40:53;;;;;;;10.17;9.40;;;;;;;8.97;88.31;101687.13;4991619;28;20445;-45
2022/05/03 01:43:32;;;;;;;10.30;9.30;;;;;;;8.99;88.48;101690.44;4993075;28;20442;-46
2022/05/03 01:46:06;;;;;;;9.80;9.00;;;;;;;9.01;88.64;101688.47;4987692;28;20454;-46
2022/05/03 01:51:43;;;;;;;10.00;9.10;;;;;;;9.08;88.54;101684.16;4992394;28;20458;-47
2022/05/03 01:54:31;;;;;;;10.93;9.93;;;;;;;9.12;88.60;101684.66;4993094;28;20442;-44
2022/05/03 01:57:04;;;;;;;11.70;10.60;;;;;;;9.14;88.97;101688.81;4992774;28;20493;-45
2022/05/03 01:59:43;;;;;;;12.53;11.30;;;;;;;9.17;88.72;101675.19;4992909;28;20474;-47
2022/05/03 02:02:22;;;;;;;11.73;10.73;;;;;;;9.21;88.73;101679.19;4992219;28;20461;-44
2022/05/03 02:05:00;;;;;;;11.50;10.50;;;;;;;9.25;89.03;101680.53;4992743;28;20429;-44
2022/05/03 02:07:43;;;;;;;13.83;12.00;;;;;;;9.29;88.92;101683.69;4992843;28;20462;-45
2022/05/03 02:10:18;;;;;;;13.40;11.40;;;;;;;9.33;89.00;101682.34;4992708;28;20432;-44
2022/05/03 02:12:53;;;;;;;13.13;11.80;;;;;;;9.36;89.02;101684.69;4992094;28;21053;-44
2022/05/03 02:15:30;;;;;;;13.80;12.50;;;;;;;9.40;88.88;101678.06;4992713;28;20432;-48
2022/05/03 02:18:05;;;;;;;14.07;12.67;;;;;;;9.45;89.15;101678.38;4992875;28;20448;-45
2022/05/03 02:20:47;;;;;;;14.87;13.40;;;;;;;9.48;89.42;101682.53;4992387;28;20559;-48
2022/05/03 02:23:21;;;;;;;17.07;15.37;;;;;;;9.49;89.87;101687.69;4992470;28;20459;-46
2022/05/03 02:26:23;;;;;;;18.27;16.10;;;;;;;9.52;90.29;101682.03;4992311;28;20461;-43
2022/05/03 02:28:56;;;;;;;19.03;17.10;;;;;;;9.54;90.86;101673.88;4989205;28;20444;-47
2022/05/03 02:31:31;;;;;;;21.53;19.20;;;;;;;9.52;94.88;101675.88;4991692;28;20469;-44
2022/05/03 02:34:14;;;;;;;22.90;18.57;;;;;;;9.53;96.18;101664.25;4992494;28;20433;-48
2022/05/03 02:36:46;;;;;;;22.43;19.30;;;;;;;9.55;95.61;101667.56;4992300;28;20457;-43
2022/05/03 02:39:15;;;;;;;23.20;20.67;;;;;;;9.59;95.74;101666.25;4992467;28;20485;-46
2022/05/03 02:41:46;;;;;;;20.67;18.37;;;;;;;9.57;95.97;101662.88;4991784;28;20465;-44
2022/05/03 02:44:13;;;;;;;20.27;17.33;;;;;;;9.56;96.77;101674.56;4992334;28;20426;-47
2022/05/03 02:46:54;;;;;;;21.50;16.37;;;;;;;9.58;96.80;101660.06;4987460;28;20469;-44
2022/05/03 02:49:34;;;;;;;21.20;16.73;;;;;;;9.64;96.75;101664.72;4988085;28;20418;-44
2022/05/03 02:52:10;;;;;;;18.97;16.93;;;;;;;9.62;97.11;101673.84;4991659;28;20466;-49
2022/05/03 02:54:48;;;;;;;16.87;15.10;;;;;;;9.59;97.50;101660.91;4992327;28;20441;-49
2022/05/03 02:57:29;;;;;;;21.40;16.63;;;;;;;9.59;97.45;101671.56;4991995;28;20467;-43
2022/05/03 03:03:06;;;;;;;18.00;16.20;;;;;;;9.59;97.46;101671.56;4991719;28;20468;-46
2022/05/03 03:05:39;;;;;;;16.43;14.67;;;;;;;9.60;97.58;101675.88;4991980;28;20430;-50
2022/05/03 03:08:11;;;;;;;21.47;15.33;;;;;;;9.55;97.17;101673.72;4988943;28;20445;-44
2022/05/03 03:10:48;;;;;;;17.97;14.40;;;;;;;9.52;97.49;101671.41;4976074;28;20431;-47
2022/05/03 03:13:18;;;;;;;16.87;15.03;;;;;;;9.50;97.34;101676.03;4975661;28;20439;-48
2022/05/03 03:15:46;;;;;;;17.83;15.50;;;;;;;9.52;97.71;101681.22;4990963;28;20450;-50
2022/05/03 03:18:16;;;;;;;17.00;14.43;;;;;;;9.53;97.26;101682.88;4991181;28;20442;-46
2022/05/03 03:20:47;;;;;;;17.23;14.00;;;;;;;9.48;97.57;101675.38;4991064;28;20470;-53
2022/05/03 03:23:18;;;;;;;23.93;13.90;;;;;;;9.41;97.70;101682.34;4992124;28;20438;-47
2022/05/03 03:25:48;;;;;;;19.03;14.73;;;;;;;9.48;97.80;101680.69;4991746;28;20456;-49
2022/05/03 03:28:21;;;;;;;16.73;12.40;;;;;;;9.44;97.63;101676.69;4991800;28;20430;-48
2022/05/03 03:30:50;;;;;;;13.63;12.00;;;;;;;9.44;97.77;101682.84;4991230;28;20436;-48
2022/05/03 03:33:19;;;;;;;10.73;9.53;;;;;;;9.31;96.90;101679.03;4992025;28;20430;-46
2022/05/03 03:35:48;;;;;;;17.43;11.40;;;;;;;9.30;97.34;101688.84;4991935;28;20460;-46
2022/05/03 03:38:16;;;;;;;15.47;9.73;;;;;;;9.20;97.00;101682.84;4991903;28;20438;-47
2022/05/03 03:40:46;;;;;;;13.33;8.70;;;;;;;9.18;96.84;101698.16;4991052;28;20470;-49
2022/05/03 03:43:15;;;;;;;16.07;9.60;;;;;;;9.08;96.25;101702.78;4994276;28;20465;-46
2022/05/03 03:45:42;;;;;;;13.50;10.07;;;;;;;9.16;97.11;101702.81;4992684;28;20434;-48
2022/05/03 03:48:10;;;;;;;10.47;9.40;;;;;;;9.09;95.46;101703.63;4987206;28;20800;-50
2022/05/03 03:50:39;;;;;;;9.27;8.33;;;;;;;8.90;94.04;101710.03;4995118;28;20508;-46
2022/05/03 03:53:08;;;;;;;14.90;8.27;;;;;;;8.80;93.51;101706.72;4994856;28;20446;-51
2022/05/03 03:55:36;;;;;;;13.37;7.90;;;;;;;8.71;93.28;101702.34;4994815;28;20438;-50
2022/05/03 03:58:05;;;;;;;11.57;7.97;;;;;;;8.65;93.24;101711.81;4995243;28;20445;-47
2022/05/03 04:00:33;;;;;;;11.37;7.97;;;;;;;8.65;92.70;101716.28;4994888;28;20483;-49
2022/05/03 04:03:02;;;;;;;12.47;7.27;;;;;;;8.63;92.42;101712.97;4994486;28;20474;-46
2022/05/03 04:05:30;;;;;;;10.60;8.00;;;;;;;8.62;92.73;101711.31;4994838;28;20461;-47
2022/05/03 04:07:58;;;;;;;14.37;8.67;;;;;;;8.54;91.34;101714.75;4994709;28;20442;-48
2022/05/03 04:10:27;;;;;;;14.00;7.83;;;;;;;8.54;92.61;101712.09;4994529;28;20430;-46
2022/05/03 04:12:55;;;;;;;14.10;8.77;;;;;;;8.56;91.72;101711.94;4994419;28;20462;-52
2022/05/03 04:15:23;;;;;;;11.60;8.60;;;;;;;8.52;91.14;101708.75;4994748;28;20441;-50
2022/05/03 04:17:51;;;;;;;11.57;8.60;;;;;;;8.56;90.66;101714.59;4994760;28;20438;-49
2022/05/03 04:20:19;;;;;;;19.07;7.80;;;;;;;8.59;90.38;101712.47;4994507;28;20505;-45
2022/05/03 04:22:46;;;;;;;17.57;8.60;;;;;;;8.61;90.18;101720.25;4994095;28;20863;-48
2022/05/03 04:25:15;;;;;;;13.97;7.73;;;;;;;8.60;90.04;101721.28;4994723;28;20430;-47
2022/05/03 04:27:43;;;;;;;13.67;8.17;;;;;;;8.60;89.67;101718.63;4994372;28;20982;-49
2022/05/03 04:30:12;;;;;;;11.23;7.37;;;;;;;8.62;88.66;101717.47;4994370;28;20426;-44
2022/05/03 04:32:40;;;;;;;14.30;7.80;;;;;;;8.65;88.51;101719.78;4993987;28;20477;-48
2022/05/03 04:35:08;;;;;;;17.50;8.40;;;;;;;8.68;88.38;101721.28;4994191;28;20434;-48
2022/05/03 04:37:36;;;;;;;12.67;7.10;;;;;;;8.74;87.15;101721.50;4994232;28;20468;-51
2022/05/03 04:40:04;;;;;;;12.90;7.87;;;;;;;8.78;86.98;101719.34;4994398;28;20485;-48
2022/05/03 04:42:32;;;;;;;16.87;8.40;;;;;;;8.76;86.62;101726.63;4993629;28;21020;-46
2022/05/03 04:45:02;;;;;;;9.47;7.27;;;;;;;8.73;86.37;101721.63;4994613;28;20438;-51
2022/05/03 04:47:29;;;;;;;11.30;7.60;;;;;;;8.65;86.74;101718.97;4983030;28;20503;-48
2022/05/03 04:49:57;;;;;;;11.60;8.50;;;;;;;8.64;86.77;101728.75;4994008;28;20426;-50
2022/05/03 04:52:24;;;;;;;18.20;7.67;;;;;;;8.78;87.75;101719.34;4993507;28;20519;-47
2022/05/03 04:54:52;;;;;;;14.60;7.20;;;;;;;8.80;85.19;101725.34;4993780;28;20437;-49
2022/05/03 04:57:19;;;;;;;14.00;8.30;;;;;;;9.15;84.51;101741.06;4994032;28;20458;-48
2022/05/03 04:59:47;;;;;;;12.77;6.40;;;;;;;9.61;81.57;101726.31;4993951;28;20429;-49
2022/05/03 05:02:16;;;;;;;9.57;6.50;;;;;;;9.85;76.52;101725.47;4993160;28;20823;-50
2022/05/03 05:04:44;;;;;;;14.17;7.40;;;;;;;10.74;74.49;101730.59;4993755;28;20958;-48
2022/05/03 05:07:12;;;;;;;12.00;6.50;;;;;;;11.17;70.49;101740.69;4993654;28;20979;-50
2022/05/03 05:10:23;;;;;;;12.73;6.83;;;;;;;12.09;68.50;101737.00;4993696;28;20434;-49
2022/05/03 05:12:30;;;;;;;11.40;5.73;;;;;;;12.97;65.15;101726.25;4992915;28;20554;-49
2022/05/03 05:14:58;;;;;;;11.20;7.20;;;;;;;12.72;61.75;101729.25;4993805;28;20492;-49
2022/05/03 05:17:26;;;;;;;7.30;5.40;;;;;;;11.61;64.88;101739.06;4993580;28;20458;-45
2022/05/03 05:19:54;;;;;;;9.40;6.10;;;;;;;11.36;66.38;101740.25;4993615;28;20533;-47
2022/05/03 05:22:22;;;;;;;8.60;6.07;;;;;;;11.77;66.65;101745.34;4992926;28;20544;-50
2022/05/03 05:24:50;;;;;;;9.27;6.23;;;;;;;11.63;67.03;101737.03;4993429;28;20434;-49
2022/05/03 05:27:18;;;;;;;12.90;6.20;;;;;;;11.46;66.14;101743.53;4993244;28;20854;-49
2022/05/03 05:29:46;;;;;;;14.83;6.63;;;;;;;12.05;65.21;101741.88;4993574;28;20422;-49
2022/05/03 05:32:14;;;;;;;8.90;5.50;;;;;;;11.20;65.43;101744.88;4992668;28;20469;-44
2022/05/03 05:34:43;;;;;;;13.90;5.47;;;;;;;11.85;62.61;101742.56;4993365;28;20434;-45
2022/05/03 05:37:10;;;;;;;7.27;5.57;;;;;;;11.92;62.59;101738.16;4993236;28;20461;-49
2022/05/03 05:39:38;;;;;;;6.97;5.43;;;;;;;11.05;66.71;101750.13;4993008;28;20434;-49
2022/05/03 05:42:06;;;;;;;11.37;6.00;;;;;;;11.86;63.46;101744.22;4992295;28;20474;-47
2022/05/03 05:44:35;;;;;;;12.43;6.43;;;;;;;12.65;62.09;101741.72;4993332;28;20436;-49
2022/05/03 05:47:04;;;;;;;7.00;5.43;;;;;;;13.50;58.41;101743.78;4985305;28;20988;-51
2022/05/03 05:49:33;;;;;;;12.13;6.30;;;;;;;13.52;56.62;101745.25;4990269;28;20438;-45
2022/05/03 05:54:43;;;;;;;9.40;5.43;;;;;;;14.02;54.70;101741.53;4992624;28;20438;-52
2022/05/03 05:57:11;;;;;;;8.80;5.70;;;;;;;14.67;54.28;101751.06;4992925;28;20827;-48
2022/05/03 05:59:39;;;;;;;7.93;4.60;;;;;;;14.57;50.27;101755.97;4992975;28;20434;-52
2022/05/03 06:02:07;;;;;;;8.37;4.97;;;;;;;13.73;53.48;101765.84;4992064;28;20845;-49
2022/05/03 06:04:34;;;;;;;11.30;5.10;;;;;;;12.95;56.17;101763.09;4992270;28;20434;-48
2022/05/03 06:07:04;;;;;;;12.30;6.23;;;;;;;12.23;57.73;101760.25;4992788;28;20597;-46
2022/05/03 06:09:32;;;;;;;14.10;4.90;;;;;;;12.28;56.28;101763.19;4992855;28;20434;-50
2022/05/03 06:11:59;;;;;;;9.73;4.93;;;;;;;12.33;56.76;101758.16;4992187;28;20461;-49
2022/05/03 06:14:27;;;;;;;8.30;4.70;;;;;;;12.24;56.92;101772.63;4992694;28;20441;-47
2022/05/03 06:16:56;;;;;;;10.43;5.23;;;;;;;12.86;55.30;101767.72;4992579;28;20461;-47
2022/05/03 06:19:25;;;;;;;8.53;4.80;;;;;;;13.37;52.41;101757.88;4992403;28;20430;-49
2022/05/03 06:21:52;;;;;;;11.93;5.50;;;;;;;13.18;53.26;101769.19;4991732;28;20936;-47
2022/05/03 06:24:21;;;;;;;12.50;5.10;;;;;;;13.67;52.60;101769.28;4992406;28;20962;-50
2022/05/03 06:26:49;;;;;;;8.77;5.43;;;;;;;13.49;54.49;101764.38;4992404;28;20492;-47
2022/05/03 06:29:17;;;;;;;12.10;6.30;;;;;;;14.04;52.90;101763.63;4992528;28;20962;-51
2022/05/03 06:31:44;;;;;;;12.33;5.63;;;;;;;14.39;50.92;101767.22;4991760;28;20462;-49
2022/05/03 06:34:12;;;;;;;8.90;5.17;;;;;;;13.70;50.16;101776.94;4992266;28;20473;-45
2022/05/03 06:36:40;;;;;;;11.27;4.70;;;;;;;13.22;51.56;101783.84;4992468;28;20465;-47
2022/05/03 06:39:07;;;;;;;8.43;4.90;;;;;;;13.58;51.11;101768.59;4992441;28;20434;-47
2022/05/03 06:41:37;;;;;;;9.03;5.37;;;;;;;14.01;51.29;101771.25;4991488;28;20473;-52
2022/05/03 06:44:05;;;;;;;7.50;6.03;;;;;;;13.90;51.51;101772.59;4992315;28;20444;-48
2022/05/03 06:46:32;;;;;;;10.90;5.13;;;;;;;14.23;49.40;101775.53;4988577;28;20457;-51
2022/05/03 06:49:00;;;;;;;9.93;4.60;;;;;;;14.54;48.29;101770.63;4985466;28;20487;-51
2022/05/03 06:51:28;;;;;;;10.90;5.23;;;;;;;15.12;48.18;101769.25;4991601;28;20477;-48
2022/05/03 06:53:56;;;;;;;8.53;4.30;;;;;;;15.73;46.62;101772.72;4992257;28;20437;-49
2022/05/03 06:56:24;;;;;;;7.63;4.80;;;;;;;15.03;47.06;101774.97;4992073;28;20457;-52
2022/05/03 06:58:53;;;;;;;11.50;5.53;;;;;;;14.95;47.27;101770.63;4992145;28;20868;-48
2022/05/03 07:01:20;;;;;;;10.27;4.60;;;;;;;15.35;46.30;101766.22;4991431;28;20993;-50
2022/05/03 07:03:48;;;;;;;13.10;4.60;;;;;;;14.81;46.64;101780.47;4992125;28;20443;-52
2022/05/03 07:06:21;;;;;;;13.57;4.83;;;;;;;14.98;46.52;101767.53;4992052;28;20457;-49
2022/05/03 07:08:48;;;;;;;7.67;4.43;;;;;;;15.00;46.51;101783.44;4992124;28;20799;-50
2022/05/03 07:11:16;;;;;;;10.20;5.33;;;;;;;14.21;48.95;101778.44;4991352;28;20461;-50
2022/05/03 07:13:44;;;;;;;14.20;5.37;;;;;;;14.43;47.92;101755.06;4992010;28;20437;-48
2022/05/03 07:16:12;;;;;;;12.93;4.53;;;;;;;14.46;47.33;101767.25;4992047;28;20832;-49
2022/05/03 07:24:11;;;;;;;9.60;4.83;;;;;;;14.17;47.82;101774.47;4995930;28;20915;-50
2022/05/03 07:26:38;;;;;;;8.20;4.53;;;;;;;14.15;47.98;101781.06;4995553;28;20469;-51
2022/05/03 07:29:07;;;;;;;6.70;4.50;;;;;;;14.44;47.50;101775.50;4995691;28;20434;-51
2022/05/03 07:31:36;;;;;;;8.73;4.30;;;;;;;14.66;47.49;101779.78;4995604;28;20464;-45
2022/05/03 07:34:03;;;;;;;7.37;4.40;;;;;;;14.96;44.28;101777.66;4995568;28;20531;-48
2022/05/03 07:36:31;;;;;;;8.90;4.93;;;;;;;13.42;48.04;101794.78;4995134;28;20453;-48
2022/05/03 07:38:58;;;;;;;7.50;4.50;;;;;;;13.92;47.56;101778.56;4995570;28;20437;-43
2022/05/03 07:41:26;;;;;;;8.23;5.83;;;;;;;13.48;51.30;101786.00;4994739;28;20465;-43
2022/05/03 07:43:54;;;;;;;10.53;5.47;;;;;;;13.80;51.31;101783.63;4995267;28;20521;-46
2022/05/03 07:46:21;;;;;;;14.03;5.30;;;;;;;13.73;51.46;101789.97;4992371;28;20469;-46
2022/05/03 07:48:50;;;;;;;9.10;5.27;;;;;;;13.34;50.45;101801.09;4987083;28;20434;-46
2022/05/03 07:51:19;;;;;;;11.23;5.53;;;;;;;13.12;52.31;101797.53;4994256;28;20470;-48
2022/05/03 07:53:47;;;;;;;7.53;4.63;;;;;;;12.52;52.09;101808.44;4995222;28;20457;-42
2022/05/03 07:56:14;;;;;;;10.20;5.03;;;;;;;12.94;53.25;101807.78;4995064;28;20466;-46
2022/05/03 07:58:42;;;;;;;9.30;4.97;;;;;;;13.52;50.69;101808.72;4995091;28;20430;-47
2022/05/03 08:01:09;;;;;;;9.87;5.23;;;;;;;13.17;51.22;101810.38;4994240;28;20493;-45
2022/05/03 08:03:37;;;;;;;10.93;4.70;;;;;;;13.07;50.91;101805.28;4994864;28;20849;-42
2022/05/03 08:06:06;;;;;;;8.00;5.23;;;;;;;13.84;49.92;101795.66;4994941;28;20476;-45
2022/05/03 08:08:34;;;;;;;8.67;4.93;;;;;;;13.68;50.14;101806.63;4995089;28;20464;-42
2022/05/03 08:11:01;;;;;;;14.17;5.40;;;;;;;13.38;50.55;101817.63;4994277;28;20465;-43
2022/05/03 08:13:29;;;;;;;8.80;4.60;;;;;;;12.86;50.76;101815.09;4994777;28;20437;-45
2022/05/03 08:15:56;;;;;;;13.17;5.63;;;;;;;13.08;51.62;101808.84;4994490;28;20460;-44
2022/05/03 08:18:24;;;;;;;11.73;5.33;;;;;;;13.47;49.48;101795.88;4994785;28;20434;-46
2022/05/03 08:20:53;;;;;;;12.63;5.70;;;;;;;14.08;49.29;101801.63;4994024;28;20433;-47
2022/05/03 08:23:22;;;;;;;11.30;5.33;;;;;;;14.21;49.16;101807.09;4994611;28;20477;-44
2022/05/03 08:25:50;;;;;;;11.73;5.17;;;;;;;14.67;48.87;101800.22;4994469;28;20461;-41
2022/05/03 08:28:17;;;;;;;14.33;5.27;;;;;;;14.15;48.13;101795.31;4994095;28;20430;-41
2022/05/03 08:30:45;;;;;;;17.63;5.57;;;;;;;13.86;47.30;101800.81;4993608;28;20954;-46
2022/05/03 08:33:12;;;;;;;9.73;4.67;;;;;;;13.45;49.35;101805.97;4994493;28;20436;-49
2022/05/03 08:35:40;;;;;;;7.93;5.13;;;;;;;13.46;51.26;101802.28;4994473;28;20430;-47
2022/05/03 08:43:41;;;;;;;9.67;5.70;;;;;;;13.89;50.27;101797.75;4994327;28;20844;-48
2022/05/03 08:46:09;;;;;;;8.10;5.17;;;;;;;13.04;50.05;101804.81;4991480;28;20454;-48
2022/05/03 08:48:41;;;;;;;10.63;5.60;;;;;;;13.24;54.07;101800.56;4985940;28;20430;-47
2022/05/03 08:51:16;;;;;;;12.67;5.20;;;;;;;13.40;51.24;101811.06;4993518;28;20816;-46
2022/05/03 08:53:44;;;;;;;7.50;5.13;;;;;;;13.74;49.84;101805.00;4994024;28;20524;-44
2022/05/03 08:56:18;;;;;;;7.57;5.17;;;;;;;14.20;49.38;101798.22;4994108;28;20458;-44
2022/05/03 08:58:46;;;;;;;13.70;5.37;;;;;;;14.62;47.63;101791.09;4994097;28;20433;-45
2022/05/03 09:01:14;;;;;;;9.77;5.00;;;;;;;14.64;46.63;101800.63;4993323;28;20827;-45
2022/05/03 09:03:42;;;;;;;10.13;5.60;;;;;;;13.90;49.11;101801.25;4993637;28;20474;-48
2022/05/03 09:06:09;;;;;;;13.80;5.93;;;;;;;13.89;48.58;101802.28;4993483;28;20464;-43
2022/05/03 09:08:39;;;;;;;12.00;5.13;;;;;;;13.69;49.24;101800.25;4994014;28;20947;-46
2022/05/03 09:11:15;;;;;;;9.10;5.20;;;;;;;13.16;49.51;101806.88;4992960;28;20466;-46
2022/05/03 09:13:44;;;;;;;8.17;5.03;;;;;;;12.99;51.62;101817.94;4993652;28;20453;-44
2022/05/03 09:16:13;;;;;;;14.17;5.87;;;;;;;13.36;50.87;101811.63;4993468;28;20517;-49
2022/05/03 09:18:42;;;;;;;7.63;4.77;;;;;;;13.61;49.48;101805.72;4993402;28;20765;-51
2022/05/03 09:24:10;;;;;;;8.80;5.30;;;;;;;14.34;46.78;101802.69;4993280;28;20987;-47
2022/05/03 09:26:39;;;;;;;7.23;5.07;;;;;;;14.11;48.30;101804.75;4993136;28;20465;-47
2022/05/03 09:29:09;;;;;;;8.13;4.43;;;;;;;14.26;50.11;101797.44;4993230;28;20438;-50
2022/05/03 09:31:40;;;;;;;10.30;4.97;;;;;;;14.31;46.61;101807.56;4992709;28;20466;-48
2022/05/03 09:34:19;;;;;;;10.83;5.40;;;;;;;14.05;47.21;101799.31;4993439;28;20844;-51
2022/05/03 09:36:49;;;;;;;11.20;4.73;;;;;;;14.09;51.19;101798.75;4993287;28;20549;-52
2022/05/03 09:39:35;;;;;;;14.13;5.30;;;;;;;14.82;47.87;101805.47;4992518;28;20932;-47
2022/05/03 09:42:06;;;;;;;7.77;5.07;;;;;;;14.46;48.39;101796.78;4992593;28;20828;-48
2022/05/03 09:44:36;;;;;;;10.37;5.43;;;;;;;14.25;50.04;101805.66;4993165;28;20533;-46
2022/05/03 09:47:11;;;;;;;8.20;5.27;;;;;;;14.14;49.12;101800.84;4984388;28;20550;-48
2022/05/03 09:49:40;;;;;;;10.17;5.30;;;;;;;14.08;46.72;101804.31;4990951;28;20847;-46
2022/05/03 09:52:09;;;;;;;9.93;4.33;;;;;;;13.88;46.71;101809.50;4992351;28;20487;-48
2022/05/03 09:54:47;;;;;;;13.37;5.53;;;;;;;14.10;46.76;101795.03;4993156;28;20430;-50
2022/05/03 09:57:21;;;;;;;12.33;5.63;;;;;;;14.48;47.63;101805.47;4992780;28;20454;-47
2022/05/03 09:59:50;;;;;;;5.23;4.37;;;;;;;15.32;46.28;101796.19;4992727;28;20430;-49
2022/05/03 10:02:19;;;;;;;8.53;4.93;;;;;;;15.58;44.27;101785.53;4992021;28;20557;-45
2022/05/03 10:04:49;;;;;;;9.90;5.53;;;;;;;15.72;45.61;101799.81;4992574;28;20474;-52
2022/05/03 10:07:17;;;;;;;11.30;5.83;;;;;;;16.17;44.61;101795.50;4992592;28;20930;-48
2022/05/03 10:09:46;;;;;;;11.87;5.50;;;;;;;16.48;43.45;101782.22;4992777;28;20434;-49
2022/05/03 10:12:17;;;;;;;9.70;6.03;;;;;;;16.73;43.56;101785.06;4992023;28;20477;-48
2022/05/03 10:14:47;;;;;;;9.67;5.00;;;;;;;16.79;43.55;101793.16;4992555;28;20448;-49
2022/05/03 10:23:20;;;;;;;9.00;5.30;;;;;;;16.13;42.04;101795.06;4951055;29;20484;-47
2022/05/03 10:25:52;;;;;;;9.23;4.70;;;;;;;16.26;42.28;101789.69;5003322;28;20472;-50
2022/05/03 10:28:22;;;;;;;10.97;5.80;;;;;;;16.10;43.25;101790.09;5012161;28;20799;-47
2022/05/03 10:31:13;;;;;;;8.50;5.07;;;;;;;15.73;43.25;101796.94;5011367;28;20435;-46
2022/05/03 10:33:42;;;;;;;10.33;4.60;;;;;;;15.13;46.43;101792.41;5012126;28;20866;-49
2022/05/03 10:36:43;;;;;;;13.30;4.83;;;;;;;15.16;45.70;101794.69;5012003;28;20456;-44
2022/05/03 10:39:24;;;;;;;6.93;4.87;;;;;;;15.78;44.75;101790.94;4969483;28;20442;-47
2022/05/03 10:41:56;;;;;;;12.27;5.07;;;;;;;16.04;41.84;101796.31;5011083;28;20465;-44
2022/05/03 10:44:46;;;;;;;12.93;5.70;;;;;;;16.46;43.50;101790.50;5011695;28;20843;-46
2022/05/03 10:47:20;;;;;;;9.17;5.33;;;;;;;16.57;41.97;101794.47;5002407;28;20462;-48
2022/05/03 10:50:20;;;;;;;7.10;4.80;;;;;;;16.68;40.35;101792.97;5011173;28;20439;-44
2022/05/03 10:53:24;;;;;;;7.93;4.80;;;;;;;16.25;41.11;101790.72;5014817;28;20973;-45
2022/05/03 10:56:09;;;;;;;11.50;4.90;;;;;;;16.00;40.64;101787.03;5015619;28;20453;-45
2022/05/03 10:58:39;;;;;;;10.10;4.33;;;;;;;15.98;42.95;101789.06;5015608;28;20435;-45
2022/05/03 11:01:18;;;;;;;10.43;6.03;;;;;;;15.46;44.15;101787.13;5014994;28;20468;-46
2022/05/03 11:04:09;;;;;;;5.27;4.53;;;;;;;15.30;42.65;101788.31;5015542;28;20563;-45
2022/05/03 11:06:46;;;;;;;9.63;5.00;;;;;;;15.39;42.72;101792.47;5015540;28;20547;-46
2022/05/03 11:09:16;;;;;;;8.17;4.30;;;;;;;15.48;43.72;101787.78;5015583;28;20968;-46
2022/05/03 11:11:52;;;;;;;11.13;4.97;;;;;;;15.56;45.76;101779.50;5015101;28;20819;-44
2022/05/03 11:14:46;;;;;;;11.70;4.90;;;;;;;16.08;45.99;101778.75;5015574;28;20775;-44
2022/05/03 11:17:15;;;;;;;9.90;5.00;;;;;;;16.47;41.95;101780.56;5015033;28;20907;-46
2022/05/03 11:19:55;;;;;;;8.80;4.73;;;;;;;16.66;41.77;101779.72;5015433;28;20527;-48
2022/05/03 11:22:25;;;;;;;7.53;4.50;;;;;;;16.94;41.17;101772.16;5014671;28;20468;-44
2022/05/03 11:25:04;;;;;;;6.83;5.03;;;;;;;17.28;41.44;101765.59;5015210;28;20501;-44
2022/05/03 11:27:32;;;;;;;7.40;4.57;;;;;;;16.49;42.07;101776.63;5015029;28;20527;-43
2022/05/03 11:30:03;;;;;;;10.30;5.40;;;;;;;16.31;44.22;101776.44;5015252;28;20443;-47
2022/05/03 11:32:38;;;;;;;12.10;5.00;;;;;;;15.93;44.14;101773.56;5014322;28;20467;-47
2022/05/03 11:35:09;;;;;;;9.90;5.63;;;;;;;16.03;43.55;101771.31;5015088;28;20428;-45
2022/05/03 11:37:45;;;;;;;5.10;4.10;;;;;;;15.87;42.26;101774.38;5015012;28;20831;-48
2022/05/03 11:40:13;;;;;;;8.00;4.10;;;;;;;15.96;43.71;101773.16;5014718;28;20797;-46
2022/05/03 11:42:42;;;;;;;8.40;5.33;;;;;;;16.10;44.54;101773.16;5014420;28;20828;-43
2022/05/03 11:45:11;;;;;;;7.53;5.10;;;;;;;16.76;45.71;101773.88;5014484;28;20483;-48
2022/05/03 11:47:42;;;;;;;15.77;4.50;;;;;;;17.26;44.17;101772.25;5004514;28;21000;-45
2022/05/03 11:50:13;;;;;;;11.77;5.20;;;;;;;17.22;41.19;101757.53;5014699;28;20417;-49
2022/05/03 11:58:12;;;;;;;11.80;5.00;;;;;;;16.19;44.84;101767.34;5014849;28;20429;-48
2022/05/03 12:00:48;;;;;;;13.03;5.10;;;;;;;16.66;44.72;101768.13;5014323;28;20433;-48
2022/05/03 12:03:17;;;;;;;10.27;5.10;;;;;;;16.78;43.06;101767.25;5013536;28;20447;-45
2022/05/03 12:05:59;;;;;;;9.37;4.83;;;;;;;16.85;43.26;101770.75;5014436;28;21093;-46
2022/05/03 12:08:28;;;;;;;11.70;5.10;;;;;;;17.17;40.87;101768.13;5014580;28;20818;-48
2022/05/03 12:10:57;;;;;;;8.03;5.37;;;;;;;17.61;41.51;101762.72;5013669;28;20437;-47
2022/05/03 12:13:34;;;;;;;8.80;4.70;;;;;;;17.86;40.71;101758.16;5014240;28;20510;-44
2022/05/03 12:16:11;;;;;;;9.20;4.33;;;;;;;18.05;41.31;101753.66;5014140;28;20982;-47
2022/05/03 12:18:42;;;;;;;5.93;4.30;;;;;;;18.65;40.50;101762.84;5014447;28;20502;-46
2022/05/03 12:21:12;;;;;;;7.87;5.30;;;;;;;19.23;39.54;101760.47;5013745;28;20487;-45